sensor_id;sensor_type;location;lat;lon;timestamp;pressure;altitude;pressure_sealevel;temperature;humidity
59337;BME280;45115;52.002;4.686;2022-08-01T00:02:12;101723.94;;;18.01;100.00
59337;BME280;45115;52.002;4.686;2022-08-01T00:04:39;101715.69;;;17.97;100.00
59337;BME280;45115;52.002;4.686;2022-08-01T00:07:06;101716.50;;;17.98;100.00
59337;BME280;45115;52.002;4.686;2022-08-01T00:09:32;101715.41;;;17.99;100.00
59337;BME280;45115;52.002;4.686;2022-08-01T00:11:59;101714.00;;;18.01;100.00
59337;BME280;45115;52.002;4.686;2022-08-01T00:14:27;101706.53;;;17.98;100.00
59337;BME280;45115;52.002;4.686;2022-08-01T00:16:53;101713.53;;;17.99;100.00
59337;BME280;45115;52.002;4.686;2022-08-01T00:19:20;101715.69;;;17.97;100.00
59337;BME280;45115;52.002;4.686;2022-08-01T00:21:46;101726.13;;;17.99;100.00
59337;BME280;45115;52.002;4.686;2022-08-01T00:24:13;101723.16;;;18.00;100.00
59337;BME280;45115;52.002;4.686;2022-08-01T00:26:40;101725.22;;;18.03;100.00
59337;BME280;45115;52.002;4.686;2022-08-01T00:29:06;101735.44;;;18.06;100.00
59337;BME280;45115;52.002;4.686;2022-08-01T00:31:34;101728.19;;;18.07;100.00
59337;BME280;45115;52.002;4.686;2022-08-01T00:34:01;101724.09;;;18.10;100.00
59337;BME280;45115;52.002;4.686;2022-08-01T00:36:28;101723.59;;;18.08;100.00
59337;BME280;45115;52.002;4.686;2022-08-01T00:38:54;101720.69;;;18.04;100.00
59337;BME280;45115;52.002;4.686;2022-08-01T00:41:21;101723.84;;;18.06;100.00
59337;BME280;45115;52.002;4.686;2022-08-01T00:43:48;101729.22;;;18.06;100.00
59337;BME280;45115;52.002;4.686;2022-08-01T00:46:14;101727.13;;;18.03;100.00
59337;BME280;45115;52.002;4.686;2022-08-01T00:48:42;101718.00;;;18.04;100.00
59337;BME280;45115;52.002;4.686;2022-08-01T00:51:09;101722.06;;;18.01;100.00
59337;BME280;45115;52.002;4.686;2022-08-01T00:53:36;101723.75;;;17.97;100.00
59337;BME280;45115;52.002;4.686;2022-08-01T00:56:04;101715.69;;;17.97;100.00
59337;BME280;45115;52.002;4.686;2022-08-01T00:58:30;101719.19;;;17.98;100.00
59337;BME280;45115;52.002;4.686;2022-08-01T01:00:58;101716.78;;;17.96;100.00
59337;BME280;45115;52.002;4.686;2022-08-01T01:03:24;101716.06;;;17.90;100.00
59337;BME280;45115;52.002;4.686;2022-08-01T01:05:58;101717.25;;;17.84;100.00
59337;BME280;45115;52.002;4.686;2022-08-01T01:08:31;101717.06;;;17.80;100.00
59337;BME280;45115;52.002;4.686;2022-08-01T01:11:03;101719.75;;;17.80;100.00
59337;BME280;45115;52.002;4.686;2022-08-01T01:13:35;101714.75;;;17.74;100.00
59337;BME280;45115;52.002;4.686;2022-08-01T01:16:06;101713.44;;;17.71;100.00
59337;BME280;45115;52.002;4.686;2022-08-01T01:18:38;101705.69;;;17.70;100.00
59337;BME280;45115;52.002;4.686;2022-08-01T01:21:25;101709.19;;;17.70;100.00
59337;BME280;45115;52.002;4.686;2022-08-01T01:23:59;101708.38;;;17.70;100.00
59337;BME280;45115;52.002;4.686;2022-08-01T01:26:36;101713.16;;;17.73;100.00
59337;BME280;45115;52.002;4.686;2022-08-01T01:29:12;101706.78;;;17.69;100.00
59337;BME280;45115;52.002;4.686;2022-08-01T01:31:44;101705.41;;;17.71;100.00
59337;BME280;45115;52.002;4.686;2022-08-01T01:34:13;101707.88;;;17.67;100.00
59337;BME280;45115;52.002;4.686;2022-08-01T01:36:43;101709.75;;;17.67;100.00
59337;BME280;45115;52.002;4.686;2022-08-01T01:39:11;101714.06;;;17.68;100.00
59337;BME280;45115;52.002;4.686;2022-08-01T01:41:40;101719.72;;;17.66;100.00
59337;BME280;45115;52.002;4.686;2022-08-01T01:44:09;101713.81;;;17.64;100.00
59337;BME280;45115;52.002;4.686;2022-08-01T01:46:37;101726.66;;;17.67;100.00
59337;BME280;45115;52.002;4.686;2022-08-01T01:49:05;101716.44;;;17.70;100.00
59337;BME280;45115;52.002;4.686;2022-08-01T01:51:35;101716.75;;;17.68;100.00
59337;BME280;45115;52.002;4.686;2022-08-01T01:54:04;101721.38;;;17.62;100.00
59337;BME280;45115;52.002;4.686;2022-08-01T01:56:34;101713.72;;;17.56;100.00
59337;BME280;45115;52.002;4.686;2022-08-01T01:59:17;101720.97;;;17.55;100.00
59337;BME280;45115;52.002;4.686;2022-08-01T02:01:46;101728.50;;;17.53;100.00
59337;BME280;45115;52.002;4.686;2022-08-01T02:04:14;101724.53;;;17.50;100.00
59337;BME280;45115;52.002;4.686;2022-08-01T02:06:43;101715.50;;;17.46;100.00
59337;BME280;45115;52.002;4.686;2022-08-01T02:09:14;101720.22;;;17.35;100.00
59337;BME280;45115;52.002;4.686;2022-08-01T02:11:43;101719.41;;;17.35;100.00
59337;BME280;45115;52.002;4.686;2022-08-01T02:14:11;101713.03;;;17.31;100.00
59337;BME280;45115;52.002;4.686;2022-08-01T02:16:43;101721.00;;;17.36;100.00
59337;BME280;45115;52.002;4.686;2022-08-01T02:19:10;101723.09;;;17.39;100.00
59337;BME280;45115;52.002;4.686;2022-08-01T02:21:40;101719.41;;;17.35;100.00
59337;BME280;45115;52.002;4.686;2022-08-01T02:24:13;101719.19;;;17.31;100.00
59337;BME280;45115;52.002;4.686;2022-08-01T02:26:44;101724.06;;;17.29;100.00
59337;BME280;45115;52.002;4.686;2022-08-01T02:29:16;101721.38;;;17.29;100.00
59337;BME280;45115;52.002;4.686;2022-08-01T02:31:47;101722.16;;;17.30;100.00
59337;BME280;45115;52.002;4.686;2022-08-01T02:34:17;101713.63;;;17.27;100.00
59337;BME280;45115;52.002;4.686;2022-08-01T02:36:45;101714.44;;;17.28;100.00
59337;BME280;45115;52.002;4.686;2022-08-01T02:39:14;101726.81;;;17.24;100.00
59337;BME280;45115;52.002;4.686;2022-08-01T02:41:43;101722.69;;;17.32;100.00
59337;BME280;45115;52.002;4.686;2022-08-01T02:44:16;101718.50;;;17.25;100.00
59337;BME280;45115;52.002;4.686;2022-08-01T02:46:50;101724.72;;;17.21;100.00
59337;BME280;45115;52.002;4.686;2022-08-01T02:49:19;101724.50;;;17.17;100.00
59337;BME280;45115;52.002;4.686;2022-08-01T02:51:47;101728.97;;;17.22;100.00
59337;BME280;45115;52.002;4.686;2022-08-01T02:54:16;101729.50;;;17.24;100.00
59337;BME280;45115;52.002;4.686;2022-08-01T02:56:47;101727.47;;;17.16;100.00
59337;BME280;45115;52.002;4.686;2022-08-01T02:59:16;101727.81;;;17.09;100.00
59337;BME280;45115;52.002;4.686;2022-08-01T03:01:45;101718.81;;;16.99;100.00
59337;BME280;45115;52.002;4.686;2022-08-01T03:04:14;101709.91;;;16.85;100.00
59337;BME280;45115;52.002;4.686;2022-08-01T03:06:43;101713.22;;;16.77;100.00
59337;BME280;45115;52.002;4.686;2022-08-01T03:09:11;101718.78;;;16.61;100.00
59337;BME280;45115;52.002;4.686;2022-08-01T03:11:39;101723.25;;;16.46;100.00
59337;BME280;45115;52.002;4.686;2022-08-01T03:14:09;101727.63;;;16.37;100.00
59337;BME280;45115;52.002;4.686;2022-08-01T03:16:38;101725.56;;;16.29;100.00
59337;BME280;45115;52.002;4.686;2022-08-01T03:19:06;101733.81;;;16.32;100.00
59337;BME280;45115;52.002;4.686;2022-08-01T03:21:35;101730.81;;;16.39;100.00
59337;BME280;45115;52.002;4.686;2022-08-01T03:24:05;101732.34;;;16.45;100.00
59337;BME280;45115;52.002;4.686;2022-08-01T03:26:35;101726.44;;;16.49;100.00
59337;BME280;45115;52.002;4.686;2022-08-01T03:29:05;101732.88;;;16.47;100.00
59337;BME280;45115;52.002;4.686;2022-08-01T03:31:34;101734.47;;;16.49;100.00
59337;BME280;45115;52.002;4.686;2022-08-01T03:34:02;101727.47;;;16.53;100.00
59337;BME280;45115;52.002;4.686;2022-08-01T03:36:29;101733.03;;;16.56;100.00
59337;BME280;45115;52.002;4.686;2022-08-01T03:39:02;101736.53;;;16.57;100.00
59337;BME280;45115;52.002;4.686;2022-08-01T03:41:34;101737.25;;;16.63;100.00
59337;BME280;45115;52.002;4.686;2022-08-01T03:44:08;101743.84;;;16.70;100.00
59337;BME280;45115;52.002;4.686;2022-08-01T03:46:44;101742.25;;;16.69;100.00
59337;BME280;45115;52.002;4.686;2022-08-01T03:49:16;101741.97;;;16.71;100.00
59337;BME280;45115;52.002;4.686;2022-08-01T03:51:44;101738.69;;;16.74;100.00
59337;BME280;45115;52.002;4.686;2022-08-01T03:54:16;101742.97;;;16.75;100.00
59337;BME280;45115;52.002;4.686;2022-08-01T03:56:45;101738.63;;;16.79;100.00
59337;BME280;45115;52.002;4.686;2022-08-01T03:59:14;101737.06;;;16.78;100.00
59337;BME280;45115;52.002;4.686;2022-08-01T04:01:44;101731.63;;;16.83;100.00
59337;BME280;45115;52.002;4.686;2022-08-01T04:04:11;101735.91;;;16.84;100.00
59337;BME280;45115;52.002;4.686;2022-08-01T04:06:38;101741.25;;;16.84;100.00
59337;BME280;45115;52.002;4.686;2022-08-01T04:09:06;101738.00;;;16.87;100.00
59337;BME280;45115;52.002;4.686;2022-08-01T04:11:34;101736.09;;;16.88;100.00
59337;BME280;45115;52.002;4.686;2022-08-01T04:14:01;101739.59;;;16.89;100.00
59337;BME280;45115;52.002;4.686;2022-08-01T04:16:28;101726.41;;;16.73;100.00
59337;BME280;45115;52.002;4.686;2022-08-01T04:18:55;101728.75;;;16.55;100.00
59337;BME280;45115;52.002;4.686;2022-08-01T04:21:23;101728.19;;;16.34;100.00
59337;BME280;45115;52.002;4.686;2022-08-01T04:23:54;101739.81;;;16.24;100.00
59337;BME280;45115;52.002;4.686;2022-08-01T04:26:23;101733.69;;;16.18;100.00
59337;BME280;45115;52.002;4.686;2022-08-01T04:28:53;101733.75;;;16.13;100.00
59337;BME280;45115;52.002;4.686;2022-08-01T04:31:22;101735.69;;;16.07;100.00
59337;BME280;45115;52.002;4.686;2022-08-01T04:33:52;101743.91;;;16.16;100.00
59337;BME280;45115;52.002;4.686;2022-08-01T04:36:22;101744.41;;;16.18;100.00
59337;BME280;45115;52.002;4.686;2022-08-01T04:38:52;101747.94;;;16.14;100.00
59337;BME280;45115;52.002;4.686;2022-08-01T04:41:20;101751.75;;;16.07;100.00
59337;BME280;45115;52.002;4.686;2022-08-01T04:43:48;101756.25;;;16.12;100.00
59337;BME280;45115;52.002;4.686;2022-08-01T04:46:18;101755.28;;;16.27;100.00
59337;BME280;45115;52.002;4.686;2022-08-01T04:48:46;101757.81;;;16.43;100.00
59337;BME280;45115;52.002;4.686;2022-08-01T04:51:14;101757.59;;;16.64;100.00
59337;BME280;45115;52.002;4.686;2022-08-01T04:53:41;101756.84;;;16.82;100.00
59337;BME280;45115;52.002;4.686;2022-08-01T04:56:08;101759.59;;;16.96;100.00
59337;BME280;45115;52.002;4.686;2022-08-01T04:58:38;101761.13;;;17.03;100.00
59337;BME280;45115;52.002;4.686;2022-08-01T05:01:05;101757.91;;;17.06;100.00
59337;BME280;45115;52.002;4.686;2022-08-01T05:03:33;101761.91;;;17.08;100.00
59337;BME280;45115;52.002;4.686;2022-08-01T05:05:59;101762.91;;;17.12;100.00
59337;BME280;45115;52.002;4.686;2022-08-01T05:08:26;101769.88;;;17.13;100.00
59337;BME280;45115;52.002;4.686;2022-08-01T05:10:53;101767.91;;;17.19;100.00
59337;BME280;45115;52.002;4.686;2022-08-01T05:13:19;101771.59;;;17.23;100.00
59337;BME280;45115;52.002;4.686;2022-08-01T05:15:46;101770.75;;;17.28;100.00
59337;BME280;45115;52.002;4.686;2022-08-01T05:18:13;101773.63;;;17.32;100.00
59337;BME280;45115;52.002;4.686;2022-08-01T05:20:41;101769.28;;;17.36;100.00
59337;BME280;45115;52.002;4.686;2022-08-01T05:23:08;101766.75;;;17.45;100.00
59337;BME280;45115;52.002;4.686;2022-08-01T05:25:34;101765.56;;;17.51;100.00
59337;BME280;45115;52.002;4.686;2022-08-01T05:28:01;101764.41;;;17.57;100.00
59337;BME280;45115;52.002;4.686;2022-08-01T05:30:28;101769.97;;;17.61;100.00
59337;BME280;45115;52.002;4.686;2022-08-01T05:32:54;101762.94;;;17.65;100.00
59337;BME280;45115;52.002;4.686;2022-08-01T05:35:21;101767.28;;;17.61;100.00
59337;BME280;45115;52.002;4.686;2022-08-01T05:37:49;101772.56;;;17.66;100.00
59337;BME280;45115;52.002;4.686;2022-08-01T05:40:15;101763.44;;;17.67;100.00
59337;BME280;45115;52.002;4.686;2022-08-01T05:42:42;101773.59;;;17.70;100.00
59337;BME280;45115;52.002;4.686;2022-08-01T05:45:09;101775.09;;;17.76;100.00
59337;BME280;45115;52.002;4.686;2022-08-01T05:47:36;101779.28;;;17.83;100.00
59337;BME280;45115;52.002;4.686;2022-08-01T05:50:04;101781.41;;;17.86;100.00
59337;BME280;45115;52.002;4.686;2022-08-01T05:52:31;101777.41;;;17.83;100.00
59337;BME280;45115;52.002;4.686;2022-08-01T05:54:58;101778.78;;;17.80;100.00
59337;BME280;45115;52.002;4.686;2022-08-01T05:57:25;101773.91;;;17.83;100.00
59337;BME280;45115;52.002;4.686;2022-08-01T05:59:52;101780.97;;;17.78;100.00
59337;BME280;45115;52.002;4.686;2022-08-01T06:02:18;101781.06;;;17.73;100.00
59337;BME280;45115;52.002;4.686;2022-08-01T06:04:45;101788.88;;;17.70;100.00
59337;BME280;45115;52.002;4.686;2022-08-01T06:07:12;101794.50;;;17.73;100.00
59337;BME280;45115;52.002;4.686;2022-08-01T06:09:38;101799.69;;;17.64;100.00
59337;BME280;45115;52.002;4.686;2022-08-01T06:12:07;101790.41;;;17.57;100.00
59337;BME280;45115;52.002;4.686;2022-08-01T06:14:33;101799.34;;;17.52;100.00
59337;BME280;45115;52.002;4.686;2022-08-01T06:17:00;101801.81;;;17.48;100.00
59337;BME280;45115;52.002;4.686;2022-08-01T06:19:26;101805.88;;;17.46;100.00
59337;BME280;45115;52.002;4.686;2022-08-01T06:21:53;101803.63;;;17.53;100.00
59337;BME280;45115;52.002;4.686;2022-08-01T06:24:19;101805.53;;;17.52;100.00
59337;BME280;45115;52.002;4.686;2022-08-01T06:26:48;101808.44;;;17.56;100.00
59337;BME280;45115;52.002;4.686;2022-08-01T06:29:16;101804.06;;;17.60;100.00
59337;BME280;45115;52.002;4.686;2022-08-01T06:31:42;101804.78;;;17.66;100.00
59337;BME280;45115;52.002;4.686;2022-08-01T06:34:09;101812.19;;;17.74;100.00
59337;BME280;45115;52.002;4.686;2022-08-01T06:36:35;101809.78;;;17.73;100.00
59337;BME280;45115;52.002;4.686;2022-08-01T06:39:03;101810.28;;;17.75;100.00
59337;BME280;45115;52.002;4.686;2022-08-01T06:41:30;101815.97;;;17.73;100.00
59337;BME280;45115;52.002;4.686;2022-08-01T06:43:56;101815.88;;;17.78;100.00
59337;BME280;45115;52.002;4.686;2022-08-01T06:46:28;101816.50;;;17.89;100.00
59337;BME280;45115;52.002;4.686;2022-08-01T06:48:54;101821.13;;;18.03;100.00
59337;BME280;45115;52.002;4.686;2022-08-01T06:51:21;101805.25;;;18.06;100.00
59337;BME280;45115;52.002;4.686;2022-08-01T06:53:47;101828.13;;;18.18;100.00
59337;BME280;45115;52.002;4.686;2022-08-01T06:56:14;101830.63;;;18.14;100.00
59337;BME280;45115;52.002;4.686;2022-08-01T06:58:41;101831.50;;;18.10;100.00
59337;BME280;45115;52.002;4.686;2022-08-01T07:01:07;101828.66;;;18.01;100.00
59337;BME280;45115;52.002;4.686;2022-08-01T07:03:35;101827.50;;;17.88;100.00
59337;BME280;45115;52.002;4.686;2022-08-01T07:06:02;101828.41;;;17.83;100.00
59337;BME280;45115;52.002;4.686;2022-08-01T07:08:29;101831.59;;;17.85;100.00
59337;BME280;45115;52.002;4.686;2022-08-01T07:10:55;101828.06;;;17.71;100.00
59337;BME280;45115;52.002;4.686;2022-08-01T07:13:24;101842.72;;;17.78;100.00
59337;BME280;45115;52.002;4.686;2022-08-01T07:15:51;101847.63;;;17.71;100.00
59337;BME280;45115;52.002;4.686;2022-08-01T07:18:19;101845.38;;;17.59;100.00
59337;BME280;45115;52.002;4.686;2022-08-01T07:20:47;101833.28;;;17.43;100.00
59337;BME280;45115;52.002;4.686;2022-08-01T07:23:14;101847.34;;;17.34;100.00
59337;BME280;45115;52.002;4.686;2022-08-01T07:25:41;101850.53;;;17.36;100.00
59337;BME280;45115;52.002;4.686;2022-08-01T07:28:08;101849.81;;;17.31;100.00
59337;BME280;45115;52.002;4.686;2022-08-01T07:30:35;101852.06;;;17.43;100.00
59337;BME280;45115;52.002;4.686;2022-08-01T07:33:02;101859.75;;;17.49;100.00
59337;BME280;45115;52.002;4.686;2022-08-01T07:35:29;101857.28;;;17.34;100.00
59337;BME280;45115;52.002;4.686;2022-08-01T07:37:57;101861.88;;;17.52;100.00
59337;BME280;45115;52.002;4.686;2022-08-01T07:40:24;101872.06;;;17.50;100.00
59337;BME280;45115;52.002;4.686;2022-08-01T07:42:51;101873.53;;;17.62;100.00
59337;BME280;45115;52.002;4.686;2022-08-01T07:45:17;101884.72;;;17.69;100.00
59337;BME280;45115;52.002;4.686;2022-08-01T07:47:44;101877.75;;;17.68;100.00
59337;BME280;45115;52.002;4.686;2022-08-01T07:50:12;101879.34;;;17.69;100.00
59337;BME280;45115;52.002;4.686;2022-08-01T07:52:38;101888.63;;;17.77;100.00
59337;BME280;45115;52.002;4.686;2022-08-01T07:55:08;101893.09;;;18.01;100.00
59337;BME280;45115;52.002;4.686;2022-08-01T07:57:35;101896.88;;;18.19;100.00
59337;BME280;45115;52.002;4.686;2022-08-01T08:00:03;101892.59;;;18.18;100.00
59337;BME280;45115;52.002;4.686;2022-08-01T08:02:30;101896.66;;;18.15;100.00
59337;BME280;45115;52.002;4.686;2022-08-01T08:04:57;101904.94;;;18.19;100.00
59337;BME280;45115;52.002;4.686;2022-08-01T08:07:24;101908.28;;;18.11;100.00
59337;BME280;45115;52.002;4.686;2022-08-01T08:09:50;101913.88;;;18.14;100.00
59337;BME280;45115;52.002;4.686;2022-08-01T08:12:19;101916.31;;;18.30;100.00
59337;BME280;45115;52.002;4.686;2022-08-01T08:14:46;101910.41;;;18.28;100.00
59337;BME280;45115;52.002;4.686;2022-08-01T08:17:12;101913.47;;;18.40;100.00
59337;BME280;45115;52.002;4.686;2022-08-01T08:19:39;101917.69;;;18.61;100.00
59337;BME280;45115;52.002;4.686;2022-08-01T08:22:07;101920.47;;;18.69;100.00
59337;BME280;45115;52.002;4.686;2022-08-01T08:24:34;101919.31;;;18.90;100.00
59337;BME280;45115;52.002;4.686;2022-08-01T08:27:02;101926.03;;;19.06;100.00
59337;BME280;45115;52.002;4.686;2022-08-01T08:29:31;101917.22;;;19.01;100.00
59337;BME280;45115;52.002;4.686;2022-08-01T08:31:58;101913.44;;;18.88;100.00
59337;BME280;45115;52.002;4.686;2022-08-01T08:34:27;101917.91;;;18.78;99.58
59337;BME280;45115;52.002;4.686;2022-08-01T08:36:54;101918.00;;;18.73;100.00
59337;BME280;45115;52.002;4.686;2022-08-01T08:39:23;101920.63;;;19.06;100.00
59337;BME280;45115;52.002;4.686;2022-08-01T08:41:50;101911.84;;;18.86;95.76
59337;BME280;45115;52.002;4.686;2022-08-01T08:44:17;101915.84;;;19.17;94.26
59337;BME280;45115;52.002;4.686;2022-08-01T08:46:49;101924.97;;;19.58;94.46
59337;BME280;45115;52.002;4.686;2022-08-01T08:49:18;101931.44;;;19.71;93.43
59337;BME280;45115;52.002;4.686;2022-08-01T08:51:48;101925.88;;;19.90;91.12
59337;BME280;45115;52.002;4.686;2022-08-01T08:54:15;101931.44;;;20.31;90.01
59337;BME280;45115;52.002;4.686;2022-08-01T08:56:43;101932.13;;;20.77;87.90
59337;BME280;45115;52.002;4.686;2022-08-01T08:59:12;101931.09;;;20.96;85.10
59337;BME280;45115;52.002;4.686;2022-08-01T09:01:39;101933.06;;;21.04;85.20
59337;BME280;45115;52.002;4.686;2022-08-01T09:04:08;101934.66;;;21.14;82.95
59337;BME280;45115;52.002;4.686;2022-08-01T09:06:35;101933.53;;;21.06;81.83
59337;BME280;45115;52.002;4.686;2022-08-01T09:09:02;101940.25;;;21.18;81.24
59337;BME280;45115;52.002;4.686;2022-08-01T09:11:29;101933.25;;;21.17;84.85
59337;BME280;45115;52.002;4.686;2022-08-01T09:14:04;101941.81;;;21.10;82.48
59337;BME280;45115;52.002;4.686;2022-08-01T09:16:32;101933.97;;;21.58;83.06
59337;BME280;45115;52.002;4.686;2022-08-01T09:19:12;101943.53;;;21.82;78.38
59337;BME280;45115;52.002;4.686;2022-08-01T09:21:39;101940.91;;;22.47;77.17
59337;BME280;45115;52.002;4.686;2022-08-01T09:24:16;101946.66;;;22.37;73.77
59337;BME280;45115;52.002;4.686;2022-08-01T09:26:44;101941.44;;;22.14;75.23
59337;BME280;45115;52.002;4.686;2022-08-01T09:29:18;101952.91;;;21.75;75.19
59337;BME280;45115;52.002;4.686;2022-08-01T09:31:46;101951.63;;;21.82;75.60
59337;BME280;45115;52.002;4.686;2022-08-01T09:34:15;101958.78;;;21.95;76.41
59337;BME280;45115;52.002;4.686;2022-08-01T09:36:47;101957.19;;;22.12;73.55
59337;BME280;45115;52.002;4.686;2022-08-01T09:39:17;101951.72;;;22.38;72.56
59337;BME280;45115;52.002;4.686;2022-08-01T09:41:45;101960.00;;;22.99;70.50
59337;BME280;45115;52.002;4.686;2022-08-01T09:44:11;101963.88;;;23.49;68.04
59337;BME280;45115;52.002;4.686;2022-08-01T09:46:51;101968.09;;;23.59;67.71
59337;BME280;45115;52.002;4.686;2022-08-01T09:49:31;101955.72;;;22.89;69.42
59337;BME280;45115;52.002;4.686;2022-08-01T09:51:59;101953.94;;;22.54;67.59
59337;BME280;45115;52.002;4.686;2022-08-01T09:54:35;101969.28;;;23.19;65.93
59337;BME280;45115;52.002;4.686;2022-08-01T09:57:10;101968.75;;;22.95;67.26
59337;BME280;45115;52.002;4.686;2022-08-01T09:59:37;101974.81;;;22.53;69.20
59337;BME280;45115;52.002;4.686;2022-08-01T10:02:07;101973.19;;;22.61;66.72
59337;BME280;45115;52.002;4.686;2022-08-01T10:04:37;101972.16;;;23.14;64.80
59337;BME280;45115;52.002;4.686;2022-08-01T10:07:06;101958.78;;;23.47;63.88
59337;BME280;45115;52.002;4.686;2022-08-01T10:09:35;101964.03;;;22.83;64.61
59337;BME280;45115;52.002;4.686;2022-08-01T10:12:03;101966.69;;;23.31;64.84
59337;BME280;45115;52.002;4.686;2022-08-01T10:14:31;101972.59;;;23.97;61.57
59337;BME280;45115;52.002;4.686;2022-08-01T10:16:59;101965.38;;;24.23;59.93
59337;BME280;45115;52.002;4.686;2022-08-01T10:19:27;101966.97;;;24.02;63.49
59337;BME280;45115;52.002;4.686;2022-08-01T10:21:57;101979.00;;;23.93;63.38
59337;BME280;45115;52.002;4.686;2022-08-01T10:24:26;101967.94;;;24.65;59.50
59337;BME280;45115;52.002;4.686;2022-08-01T10:26:56;101970.13;;;24.85;56.96
59337;BME280;45115;52.002;4.686;2022-08-01T10:29:27;101966.50;;;25.18;56.47
59337;BME280;45115;52.002;4.686;2022-08-01T10:31:56;101971.72;;;25.11;56.26
59337;BME280;45115;52.002;4.686;2022-08-01T10:34:23;101972.16;;;24.29;58.14
59337;BME280;45115;52.002;4.686;2022-08-01T13:53:43;101967.81;;;25.62;45.52
59337;BME280;45115;52.002;4.686;2022-08-01T13:56:10;101963.94;;;26.48;43.98
59337;BME280;45115;52.002;4.686;2022-08-01T13:58:37;101966.72;;;26.68;40.63
59337;BME280;45115;52.002;4.686;2022-08-01T14:01:03;101966.16;;;27.27;41.01
59337;BME280;45115;52.002;4.686;2022-08-01T14:03:30;101965.00;;;28.07;38.48
59337;BME280;45115;52.002;4.686;2022-08-01T14:05:56;101967.00;;;28.76;37.65
59337;BME280;45115;52.002;4.686;2022-08-01T14:08:25;101967.25;;;28.95;37.34
59337;BME280;45115;52.002;4.686;2022-08-01T14:10:53;101959.97;;;28.29;38.43
59337;BME280;45115;52.002;4.686;2022-08-01T14:13:22;101959.72;;;26.67;40.67
59337;BME280;45115;52.002;4.686;2022-08-01T14:15:49;101963.81;;;25.71;43.35
59337;BME280;45115;52.002;4.686;2022-08-01T14:18:16;101955.56;;;26.89;42.06
59337;BME280;45115;52.002;4.686;2022-08-01T14:20:43;101961.38;;;26.72;41.54
59337;BME280;45115;52.002;4.686;2022-08-01T14:23:09;101965.44;;;25.60;44.91
59337;BME280;45115;52.002;4.686;2022-08-01T14:25:36;101962.44;;;25.12;44.21
59337;BME280;45115;52.002;4.686;2022-08-01T14:28:06;101954.38;;;26.10;41.86
59337;BME280;45115;52.002;4.686;2022-08-01T14:30:33;101946.19;;;27.58;38.86
59337;BME280;45115;52.002;4.686;2022-08-01T14:33:00;101950.56;;;27.63;38.43
59337;BME280;45115;52.002;4.686;2022-08-01T14:35:27;101954.28;;;27.94;37.76
59337;BME280;45115;52.002;4.686;2022-08-01T14:37:53;101948.59;;;28.03;37.35
59337;BME280;45115;52.002;4.686;2022-08-01T14:40:20;101956.81;;;27.64;37.04
59337;BME280;45115;52.002;4.686;2022-08-01T14:42:46;101943.66;;;26.46;40.37
59337;BME280;45115;52.002;4.686;2022-08-01T14:45:15;101950.44;;;26.23;41.31
59337;BME280;45115;52.002;4.686;2022-08-01T14:47:42;101956.22;;;26.22;42.62
59337;BME280;45115;52.002;4.686;2022-08-01T14:50:11;101944.25;;;26.39;41.58
59337;BME280;45115;52.002;4.686;2022-08-01T14:52:38;101950.41;;;26.68;41.42
59337;BME280;45115;52.002;4.686;2022-08-01T14:55:07;101951.09;;;27.69;39.22
59337;BME280;45115;52.002;4.686;2022-08-01T14:57:34;101964.44;;;27.38;39.56
59337;BME280;45115;52.002;4.686;2022-08-01T15:00:03;101961.78;;;28.44;37.44
59337;BME280;45115;52.002;4.686;2022-08-01T15:02:31;101974.50;;;27.34;38.62
59337;BME280;45115;52.002;4.686;2022-08-01T15:04:58;101965.09;;;27.51;41.48
59337;BME280;45115;52.002;4.686;2022-08-01T15:07:24;101976.72;;;28.50;36.42
59337;BME280;45115;52.002;4.686;2022-08-01T15:09:51;101974.88;;;27.72;39.57
59337;BME280;45115;52.002;4.686;2022-08-01T15:12:18;101980.75;;;27.54;39.87
59337;BME280;45115;52.002;4.686;2022-08-01T15:14:48;101988.47;;;28.31;37.68
59337;BME280;45115;52.002;4.686;2022-08-01T15:17:14;101982.91;;;28.04;37.97
59337;BME280;45115;52.002;4.686;2022-08-01T15:19:42;101979.63;;;27.95;37.71
59337;BME280;45115;52.002;4.686;2022-08-01T15:22:09;101981.38;;;26.31;43.04
59337;BME280;45115;52.002;4.686;2022-08-01T15:24:36;101969.41;;;25.38;42.62
59337;BME280;45115;52.002;4.686;2022-08-01T15:27:03;101962.41;;;24.74;45.39
59337;BME280;45115;52.002;4.686;2022-08-01T15:29:30;101973.41;;;25.03;45.48
59337;BME280;45115;52.002;4.686;2022-08-01T15:31:58;101972.53;;;26.34;42.64
59337;BME280;45115;52.002;4.686;2022-08-01T15:34:25;101969.41;;;27.32;41.85
59337;BME280;45115;52.002;4.686;2022-08-01T15:36:53;101977.75;;;28.22;38.19
59337;BME280;45115;52.002;4.686;2022-08-01T15:39:19;101969.78;;;27.15;39.27
59337;BME280;45115;52.002;4.686;2022-08-01T15:41:49;101964.00;;;26.84;39.64
59337;BME280;45115;52.002;4.686;2022-08-01T15:44:21;101959.38;;;26.52;39.89
59337;BME280;45115;52.002;4.686;2022-08-01T15:46:48;101953.44;;;25.90;42.13
59337;BME280;45115;52.002;4.686;2022-08-01T15:49:15;101959.81;;;26.10;41.90
59337;BME280;45115;52.002;4.686;2022-08-01T15:51:43;101951.47;;;26.03;42.13
59337;BME280;45115;52.002;4.686;2022-08-01T15:54:13;101956.50;;;25.59;42.84
59337;BME280;45115;52.002;4.686;2022-08-01T15:56:40;101947.16;;;25.32;42.79
59337;BME280;45115;52.002;4.686;2022-08-01T15:59:07;101946.41;;;24.23;44.39
59337;BME280;45115;52.002;4.686;2022-08-01T16:01:34;101947.75;;;23.53;46.78
59337;BME280;45115;52.002;4.686;2022-08-01T16:04:01;101945.22;;;23.17;46.97
59337;BME280;45115;52.002;4.686;2022-08-01T16:06:28;101945.03;;;23.01;48.51